Time;durP1;ratioP1;P1;durP2;ratioP2;P2;SDS_P1;SDS_P2;PMS_P1;PMS_P2;Temp;Humidity;BMP_temperature;BMP_pressure;BME280_temperature;BME280_humidity;BME280_pressure;Samples;Min_cycle;Max_cycle;Signal;HPM_P1;HPM_P2
2021/06/22 00:00:25;;;;;;;6.35;2.03;;;16.00;78.10;;;;;;5077755;28;20076;-75
2021/06/22 00:02:51;;;;;;;;;;;16.00;78.10;;;;;;5093279;28;20077;-75
2021/06/22 00:05:17;;;;;;;8.52;2.90;;;15.90;78.10;;;;;;5110236;28;19965;-74
2021/06/22 00:07:44;;;;;;;8.23;2.60;;;15.90;78.20;;;;;;5087762;28;20480;-75
2021/06/22 00:10:10;;;;;;;4.63;2.30;;;15.90;78.30;;;;;;5080718;28;20067;-75
2021/06/22 00:12:36;;;;;;;5.95;2.45;;;15.90;78.40;;;;;;5098770;28;20059;-75
2021/06/22 00:15:04;;;;;;;5.97;2.30;;;15.90;78.50;;;;;;5088509;28;20411;-75
2021/06/22 00:17:29;;;;;;;7.28;2.50;;;15.90;78.30;;;;;;5111252;28;20032;-75
2021/06/22 00:19:55;;;;;;;7.68;2.85;;;15.90;77.70;;;;;;5112208;28;20028;-75
2021/06/22 00:22:20;;;;;;;6.03;2.47;;;15.90;77.70;;;;;;5097440;28;20036;-75
2021/06/22 00:24:46;;;;;;;6.78;2.50;;;15.90;77.70;;;;;;5092852;28;20028;-75
2021/06/22 00:27:13;;;;;;;5.00;2.38;;;15.80;77.30;;;;;;5097345;28;20028;-75
2021/06/22 00:29:43;;;;;;;5.35;2.08;;;15.80;77.10;;;;;;5096905;28;20077;-74
2021/06/22 00:32:09;;;;;;;5.75;1.98;;;15.80;76.90;;;;;;5115250;28;20194;-75
2021/06/22 00:34:34;;;;;;;5.55;2.10;;;15.80;76.60;;;;;;5116592;28;20387;-75
2021/06/22 00:37:00;;;;;;;5.63;1.70;;;15.80;76.50;;;;;;5115754;28;20039;-75
2021/06/22 00:39:26;;;;;;;6.63;2.17;;;15.80;76.50;;;;;;5115423;28;20039;-75
2021/06/22 00:41:51;;;;;;;4.70;2.08;;;15.80;76.60;;;;;;5081429;28;20035;-75
2021/06/22 00:44:17;;;;;;;6.72;2.08;;;15.70;76.60;;;;;;5090879;28;20054;-75
2021/06/22 00:46:43;;;;;;;9.75;2.15;;;15.70;76.60;;;;;;5096345;28;20028;-74
2021/06/22 00:49:08;;;;;;;6.03;2.30;;;15.70;76.80;;;;;;5075522;28;20414;-75
2021/06/22 00:51:34;;;;;;;6.88;2.40;;;15.60;77.10;;;;;;5100450;28;20034;-75
2021/06/22 00:54:00;;;;;;;7.13;2.10;;;15.60;77.60;;;;;;5115928;28;20031;-75
2021/06/22 00:56:28;;;;;;;12.77;2.15;;;15.60;77.60;;;;;;5097379;28;20031;-75
2021/06/22 00:58:54;;;;;;;8.15;2.67;;;15.60;77.90;;;;;;5086928;28;20024;-74
2021/06/22 01:01:19;;;;;;;5.68;2.80;;;15.60;78.10;;;;;;5095932;28;20142;-74
2021/06/22 01:03:45;;;;;;;6.47;2.83;;;15.60;78.40;;;;;;5077859;28;20032;-75
2021/06/22 01:06:11;;;;;;;5.93;2.97;;;15.50;78.70;;;;;;5092432;28;20039;-75
2021/06/22 01:08:37;;;;;;;6.05;2.90;;;15.60;79.30;;;;;;5096767;28;20031;-75
2021/06/22 01:11:03;;;;;;;8.23;3.63;;;15.60;79.60;;;;;;5095741;28;20032;-75
2021/06/22 01:13:29;;;;;;;8.15;3.40;;;15.50;79.70;;;;;;5102310;28;20024;-75
2021/06/22 01:15:54;;;;;;;10.45;3.70;;;15.50;80.00;;;;;;5114135;28;20030;-74
2021/06/22 01:18:20;;;;;;;9.75;3.28;;;15.50;80.50;;;;;;5088429;28;20024;-75
2021/06/22 01:20:46;;;;;;;10.93;3.90;;;15.40;80.80;;;;;;5096109;28;20051;-75
2021/06/22 01:23:11;;;;;;;8.23;3.95;;;15.40;81.40;;;;;;5095056;28;20019;-75
2021/06/22 01:25:38;;;;;;;10.88;3.63;;;15.30;81.60;;;;;;5096888;28;20028;-75
2021/06/22 01:28:04;;;;;;;11.07;3.95;;;15.30;81.80;;;;;;5097168;28;20023;-75
2021/06/22 01:30:31;;;;;;;9.90;3.65;;;15.30;81.90;;;;;;5114935;28;20396;-75
2021/06/22 01:32:58;;;;;;;11.57;3.63;;;15.30;82.10;;;;;;5113033;28;20032;-75
2021/06/22 01:35:25;;;;;;;8.68;3.92;;;15.30;82.20;;;;;;5083079;28;20032;-75
2021/06/22 01:37:51;;;;;;;8.18;3.38;;;15.20;82.50;;;;;;5080435;28;20131;-75
2021/06/22 01:40:16;;;;;;;6.63;3.40;;;15.20;83.20;;;;;;5095102;28;20087;-74
2021/06/22 01:42:42;;;;;;;13.90;3.80;;;15.20;82.70;;;;;;5101419;28;20537;-74
2021/06/22 01:45:08;;;;;;;8.15;3.45;;;15.20;82.70;;;;;;5096947;28;20019;-75
2021/06/22 01:47:34;;;;;;;8.55;3.75;;;15.20;82.60;;;;;;5113887;28;20031;-75
2021/06/22 01:50:02;;;;;;;12.30;4.10;;;15.20;82.80;;;;;;5087320;28;20089;-75
2021/06/22 01:52:28;;;;;;;8.18;3.25;;;15.20;82.90;;;;;;5114260;28;20031;-74
2021/06/22 01:54:55;;;;;;;14.57;4.00;;;15.20;82.90;;;;;;5115105;28;20027;-75
2021/06/22 01:57:22;;;;;;;9.35;3.70;;;15.10;83.10;;;;;;5102741;28;20019;-75
2021/06/22 01:59:48;;;;;;;13.38;3.47;;;15.10;83.20;;;;;;5115004;28;20026;-75
2021/06/22 02:02:13;;;;;;;14.98;3.47;;;15.10;83.30;;;;;;5069494;28;20115;-75
2021/06/22 02:04:39;;;;;;;10.55;3.60;;;15.10;83.50;;;;;;5109867;28;20027;-74
2021/06/22 02:07:05;;;;;;;13.43;4.22;;;15.10;83.40;;;;;;5092464;28;20032;-75
2021/06/22 02:09:30;;;;;;;11.65;4.28;;;15.10;83.50;;;;;;5096710;28;20038;-74
2021/06/22 02:11:56;;;;;;;10.05;3.70;;;15.10;83.50;;;;;;5106844;28;20061;-74
2021/06/22 02:14:21;;;;;;;14.75;3.80;;;15.00;84.00;;;;;;5113116;28;20035;-74
2021/06/22 02:16:47;;;;;;;10.02;3.63;;;15.00;83.30;;;;;;5094968;28;20039;-74
2021/06/22 02:19:13;;;;;;;14.85;3.80;;;15.00;83.10;;;;;;5094509;28;20024;-74
2021/06/22 02:21:38;;;;;;;12.85;4.03;;;15.00;82.90;;;;;;5100033;28;20081;-75
2021/06/22 02:24:04;;;;;;;13.43;3.88;;;14.90;82.80;;;;;;5094230;28;20059;-74
2021/06/22 02:26:30;;;;;;;8.32;3.35;;;14.90;82.40;;;;;;5105068;28;20028;-74
2021/06/22 02:28:56;;;;;;;16.45;3.67;;;14.90;82.50;;;;;;5094166;28;20559;-75
2021/06/22 02:31:21;;;;;;;8.55;3.38;;;14.90;82.40;;;;;;5076066;28;20055;-74
2021/06/22 02:33:47;;;;;;;10.27;3.58;;;14.80;82.40;;;;;;5059342;28;20442;-74
2021/06/22 02:36:12;;;;;;;12.85;3.72;;;14.80;82.50;;;;;;5087908;28;20055;-74
2021/06/22 02:38:38;;;;;;;9.52;3.33;;;14.70;82.60;;;;;;5094025;28;20058;-75
2021/06/22 02:41:04;;;;;;;10.50;3.38;;;14.80;82.70;;;;;;5099587;28;20027;-75
2021/06/22 02:43:29;;;;;;;9.50;3.58;;;14.80;82.70;;;;;;5094485;28;20043;-75
2021/06/22 02:45:55;;;;;;;11.32;4.22;;;14.80;82.70;;;;;;5104513;28;20028;-75
2021/06/22 02:48:20;;;;;;;15.48;4.50;;;14.80;82.60;;;;;;5100296;28;20042;-75
2021/06/22 02:50:46;;;;;;;12.10;4.22;;;14.80;82.50;;;;;;5110062;28;20032;-75
2021/06/22 02:53:12;;;;;;;16.45;3.80;;;14.80;82.60;;;;;;5095708;28;20080;-75
2021/06/22 02:55:38;;;;;;;11.32;3.70;;;14.80;82.70;;;;;;5068353;28;20032;-74
2021/06/22 02:58:04;;;;;;;11.02;4.35;;;14.80;82.70;;;;;;5093809;28;20028;-75
2021/06/22 03:00:32;;;;;;;13.10;3.90;;;14.80;82.80;;;;;;5104375;28;20434;-74
2021/06/22 03:02:59;;;;;;;9.38;3.53;;;14.80;82.80;;;;;;5095718;28;20035;-75
2021/06/22 03:05:25;;;;;;;11.80;3.97;;;14.80;82.80;;;;;;5112111;28;20426;-74
2021/06/22 03:07:51;;;;;;;12.75;3.75;;;14.80;82.80;;;;;;5096299;28;20032;-74
2021/06/22 03:10:19;;;;;;;9.70;3.80;;;14.80;82.80;;;;;;5093482;28;20388;-75
2021/06/22 03:12:45;;;;;;;12.50;3.90;;;14.70;82.70;;;;;;5094402;28;20468;-74
2021/06/22 03:15:13;;;;;;;11.90;3.92;;;14.70;82.90;;;;;;5109595;28;20488;-75
2021/06/22 03:17:39;;;;;;;10.98;3.00;;;14.70;83.00;;;;;;5096048;28;20024;-74
2021/06/22 03:20:07;;;;;;;9.80;3.38;;;14.60;83.00;;;;;;5093382;28;20377;-74
2021/06/22 03:22:33;;;;;;;10.02;3.40;;;14.60;83.00;;;;;;5105035;28;20066;-75
2021/06/22 03:24:58;;;;;;;14.38;3.80;;;14.60;82.90;;;;;;5093321;28;20051;-74
2021/06/22 03:27:24;;;;;;;10.65;3.70;;;14.60;82.90;;;;;;5080158;28;20063;-75
2021/06/22 03:29:50;;;;;;;10.55;3.60;;;14.60;82.90;;;;;;5082284;28;20473;-75
2021/06/22 03:32:16;;;;;;;16.33;4.10;;;14.60;83.10;;;;;;5104920;28;20050;-75
2021/06/22 03:34:41;;;;;;;11.98;4.30;;;14.60;83.40;;;;;;5093614;28;20569;-74
2021/06/22 03:37:07;;;;;;;15.60;4.35;;;14.60;83.80;;;;;;5090506;28;20049;-74
2021/06/22 03:39:34;;;;;;;15.27;4.63;;;14.60;84.00;;;;;;5078234;28;20025;-74
2021/06/22 03:41:59;;;;;;;11.57;4.68;;;14.60;84.20;;;;;;5076118;28;20036;-75
2021/06/22 03:44:25;;;;;;;14.57;5.00;;;14.50;84.70;;;;;;5080420;28;20191;-74
2021/06/22 03:46:51;;;;;;;14.70;4.90;;;14.50;84.90;;;;;;5078216;28;20028;-75
2021/06/22 03:49:16;;;;;;;12.70;4.97;;;14.50;85.10;;;;;;5090963;28;20116;-75
2021/06/22 03:51:42;;;;;;;13.57;5.43;;;14.50;85.90;;;;;;5086542;28;20047;-75
2021/06/22 03:54:08;;;;;;;14.30;5.00;;;14.50;86.20;;;;;;5083340;28;20100;-74
2021/06/22 03:56:34;;;;;;;15.18;5.55;;;14.60;85.70;;;;;;5084874;28;20139;-75
2021/06/22 03:58:59;;;;;;;14.65;5.80;;;14.50;85.60;;;;;;5067950;28;20090;-74
2021/06/22 04:01:25;;;;;;;13.57;4.70;;;14.60;85.70;;;;;;5090657;28;20054;-74
2021/06/22 04:03:51;;;;;;;16.73;5.57;;;14.50;85.70;;;;;;5071350;28;20028;-75
2021/06/22 04:06:16;;;;;;;15.70;6.05;;;14.50;85.90;;;;;;5082414;28;20151;-75
2021/06/22 04:08:42;;;;;;;16.48;6.00;;;14.50;86.00;;;;;;5075539;28;20040;-75
2021/06/22 04:11:09;;;;;;;17.75;5.80;;;14.40;86.20;;;;;;5072340;28;20025;-74
2021/06/22 04:13:35;;;;;;;17.20;5.93;;;14.40;86.20;;;;;;5079703;28;20036;-74
2021/06/22 04:16:01;;;;;;;13.82;5.78;;;14.40;86.40;;;;;;5077049;28;20478;-74
2021/06/22 04:18:27;;;;;;;17.23;6.07;;;14.40;86.60;;;;;;5073191;28;20032;-75
2021/06/22 04:20:53;;;;;;;16.20;5.55;;;14.40;86.70;;;;;;5076165;28;20416;-75
2021/06/22 04:23:18;;;;;;;16.13;6.40;;;14.30;86.60;;;;;;5091476;28;20492;-74
2021/06/22 04:25:44;;;;;;;14.55;6.38;;;14.30;86.70;;;;;;5091015;28;20048;-74
2021/06/22 04:28:11;;;;;;;10.82;6.07;;;14.30;86.80;;;;;;5084707;28;20024;-75
2021/06/22 04:30:38;;;;;;;10.88;4.82;;;14.40;86.80;;;;;;5092005;28;20057;-74
2021/06/22 04:33:05;;;;;;;14.50;5.53;;;14.40;86.70;;;;;;5086285;28;20086;-75
2021/06/22 04:35:32;;;;;;;18.88;5.80;;;14.40;86.60;;;;;;5061181;28;20054;-75
2021/06/22 04:37:59;;;;;;;14.95;6.07;;;14.40;86.50;;;;;;5111564;28;20177;-75
2021/06/22 04:40:24;;;;;;;13.55;5.28;;;14.40;86.50;;;;;;5112667;28;20418;-75
2021/06/22 04:42:50;;;;;;;14.80;5.90;;;14.50;86.40;;;;;;5107278;28;20024;-75
2021/06/22 04:45:16;;;;;;;16.70;5.70;;;14.50;86.30;;;;;;5108611;28;20395;-75
2021/06/22 04:47:41;;;;;;;13.00;5.15;;;14.60;86.20;;;;;;5082270;28;20451;-75
2021/06/22 04:50:07;;;;;;;11.90;5.10;;;14.60;86.10;;;;;;5098114;28;20115;-75
2021/06/22 04:52:33;;;;;;;13.02;5.32;;;14.60;86.10;;;;;;5104574;28;20059;-75
2021/06/22 04:54:59;;;;;;;13.50;5.32;;;14.70;86.60;;;;;;5105794;28;20060;-75
2021/06/22 04:57:25;;;;;;;15.75;5.72;;;14.70;85.70;;;;;;5101402;28;20110;-74
2021/06/22 04:59:51;;;;;;;13.15;5.65;;;14.70;85.40;;;;;;5099421;28;20441;-75
2021/06/22 05:02:16;;;;;;;13.40;5.47;;;14.70;85.30;;;;;;5065411;28;20483;-75
2021/06/22 05:04:42;;;;;;;18.30;5.03;;;14.80;85.40;;;;;;5110397;28;20028;-74
2021/06/22 05:07:08;;;;;;;11.73;5.20;;;14.80;85.30;;;;;;5102862;28;20024;-74
2021/06/22 05:09:33;;;;;;;12.52;5.20;;;14.80;85.00;;;;;;5113080;28;20028;-74
2021/06/22 05:11:59;;;;;;;24.05;6.88;;;14.70;84.90;;;;;;5072328;28;20024;-75
2021/06/22 05:14:24;;;;;;;12.90;5.18;;;14.70;85.00;;;;;;5113532;28;20035;-75
2021/06/22 05:16:50;;;;;;;13.05;5.53;;;14.70;85.10;;;;;;5062415;28;20039;-74
2021/06/22 05:19:17;;;;;;;16.48;4.75;;;14.70;85.00;;;;;;5079320;28;20125;-75
2021/06/22 05:21:43;;;;;;;13.40;5.18;;;14.80;84.90;;;;;;5096046;28;20024;-74
2021/06/22 05:24:10;;;;;;;14.35;4.88;;;14.80;85.00;;;;;;5085234;28;20024;-74
2021/06/22 05:26:36;;;;;;;14.23;5.05;;;14.80;84.50;;;;;;5098041;28;20065;-75
2021/06/22 05:29:01;;;;;;;11.73;4.80;;;14.80;84.40;;;;;;5086649;28;20036;-75
2021/06/22 05:31:27;;;;;;;17.15;5.18;;;14.80;84.20;;;;;;5101408;28;20028;-74
2021/06/22 05:33:52;;;;;;;14.23;4.80;;;14.80;84.80;;;;;;5094192;28;20032;-75
2021/06/22 05:36:18;;;;;;;13.55;4.85;;;14.80;84.90;;;;;;5060111;28;20051;-75
2021/06/22 05:38:44;;;;;;;15.70;5.00;;;14.90;84.60;;;;;;5087716;28;20028;-75
2021/06/22 05:41:10;;;;;;;11.00;4.60;;;14.90;84.40;;;;;;5087745;28;20465;-75
2021/06/22 05:43:35;;;;;;;14.00;5.00;;;14.90;84.20;;;;;;5080260;28;20040;-75
2021/06/22 05:46:01;;;;;;;10.25;4.38;;;15.00;84.10;;;;;;5085847;28;20103;-75
2021/06/22 05:48:27;;;;;;;13.50;5.18;;;15.00;83.80;;;;;;5094920;28;20035;-75
2021/06/22 05:50:52;;;;;;;8.55;4.07;;;15.10;83.50;;;;;;5090645;28;20100;-75
2021/06/22 05:53:18;;;;;;;14.23;4.72;;;15.10;83.60;;;;;;5082320;28;20099;-75
2021/06/22 05:55:44;;;;;;;13.45;4.45;;;15.20;83.70;;;;;;5086041;28;20064;-75
2021/06/22 05:58:09;;;;;;;10.63;4.50;;;15.30;84.00;;;;;;5088728;28;20421;-75
2021/06/22 06:00:35;;;;;;;10.15;4.20;;;15.40;82.80;;;;;;5087936;28;20107;-75
2021/06/22 06:03:01;;;;;;;10.70;3.83;;;15.50;82.80;;;;;;5075214;28;20024;-75
2021/06/22 06:05:27;;;;;;;8.23;4.53;;;15.50;82.70;;;;;;5082009;28;20032;-75
2021/06/22 06:07:54;;;;;;;12.27;4.53;;;15.70;82.50;;;;;;5093255;28;20551;-75
2021/06/22 06:10:20;;;;;;;17.30;4.80;;;15.80;82.40;;;;;;5085535;28;20024;-75
2021/06/22 06:12:46;;;;;;;14.35;4.45;;;15.90;81.60;;;;;;5090450;28;20099;-75
2021/06/22 06:15:13;;;;;;;15.07;4.25;;;16.00;81.40;;;;;;5081612;28;20032;-75
2021/06/22 06:17:39;;;;;;;14.18;4.50;;;16.00;80.70;;;;;;5080421;28;20039;-75
2021/06/22 06:20:07;;;;;;;16.60;4.22;;;16.10;79.70;;;;;;5094103;28;20039;-75
2021/06/22 06:22:35;;;;;;;11.27;4.18;;;16.10;79.50;;;;;;5093939;28;20021;-75
2021/06/22 06:25:03;;;;;;;12.13;3.95;;;16.20;79.50;;;;;;5090965;28;20016;-74
2021/06/22 06:30:16;;;;;;;14.85;3.95;;;16.50;78.80;;;;;;5074699;28;20070;-74
2021/06/22 06:32:42;;;;;;;9.43;3.60;;;16.70;78.20;;;;;;5107068;27;20112;-74
2021/06/22 06:35:09;;;;;;;13.18;3.47;;;16.70;77.40;;;;;;5072546;28;20434;-74
2021/06/22 06:37:34;;;;;;;7.65;3.53;;;16.70;76.40;;;;;;5100408;28;20060;-74
2021/06/22 06:40:00;;;;;;;16.25;4.15;;;16.70;76.00;;;;;;5075236;28;20020;-74
2021/06/22 06:42:25;;;;;;;11.63;3.45;;;16.70;76.20;;;;;;5093953;28;20536;-74
2021/06/22 06:44:51;;;;;;;9.95;3.05;;;16.60;75.70;;;;;;5112035;28;20107;-74
2021/06/22 06:47:18;;;;;;;10.98;3.45;;;16.60;75.70;;;;;;5078929;28;20097;-74
2021/06/22 06:49:44;;;;;;;10.55;3.20;;;16.70;75.90;;;;;;5075647;28;20038;-74
2021/06/22 06:52:09;;;;;;;8.00;2.75;;;16.80;74.00;;;;;;5075652;28;20380;-75
2021/06/22 06:54:35;;;;;;;8.88;2.58;;;16.90;73.90;;;;;;5110079;28;20618;-74
2021/06/22 06:57:01;;;;;;;8.15;2.53;;;16.90;73.20;;;;;;5095700;28;20036;-75
2021/06/22 06:59:27;;;;;;;7.07;2.63;;;17.00;72.00;;;;;;5098431;28;20501;-74
2021/06/22 07:01:52;;;;;;;8.57;2.80;;;17.10;72.30;;;;;;5109582;28;20059;-74
2021/06/22 07:04:18;;;;;;;8.50;2.72;;;17.30;72.40;;;;;;5095376;28;20504;-74
2021/06/22 07:06:44;;;;;;;11.82;2.95;;;17.50;71.10;;;;;;5113082;28;20020;-74
2021/06/22 07:09:10;;;;;;;9.98;2.80;;;17.60;71.10;;;;;;5095576;28;20032;-74
2021/06/22 07:11:36;;;;;;;7.78;2.38;;;17.60;70.20;;;;;;5094150;28;20036;-74
2021/06/22 07:14:03;;;;;;;7.80;2.45;;;17.60;69.70;;;;;;5112645;28;20024;-74
2021/06/22 07:16:28;;;;;;;8.93;2.50;;;17.60;69.50;;;;;;5079856;28;20118;-76
2021/06/22 07:18:54;;;;;;;8.02;2.53;;;17.60;69.40;;;;;;5113727;28;20145;-77
2021/06/22 07:21:19;;;;;;;7.53;2.67;;;17.50;68.50;;;;;;5114278;28;20031;-76
2021/06/22 07:23:46;;;;;;;6.63;2.80;;;17.50;69.10;;;;;;5096095;28;20032;-76
2021/06/22 07:26:12;;;;;;;10.15;2.67;;;17.40;69.30;;;;;;5096411;28;20023;-76
2021/06/22 07:28:38;;;;;;;9.13;2.70;;;17.40;69.30;;;;;;5114121;28;20024;-77
2021/06/22 07:31:06;;;;;;;7.15;2.50;;;17.30;69.30;;;;;;5081955;28;20086;-76
2021/06/22 07:33:32;;;;;;;8.52;2.33;;;17.30;69.70;;;;;;5075651;28;20028;-77
2021/06/22 07:35:57;;;;;;;7.30;2.67;;;17.20;70.10;;;;;;5058797;28;20451;-76
2021/06/22 07:38:23;;;;;;;8.50;3.05;;;17.10;70.00;;;;;;5093477;28;20389;-76
2021/06/22 07:40:49;;;;;;;7.80;2.47;;;17.10;70.40;;;;;;5058618;28;20039;-76
2021/06/22 07:43:15;;;;;;;9.52;2.38;;;17.10;70.30;;;;;;5103401;28;20088;-76
2021/06/22 07:45:41;;;;;;;6.80;2.53;;;17.00;70.40;;;;;;5106871;28;20073;-76
2021/06/22 07:48:08;;;;;;;8.50;2.80;;;17.00;70.40;;;;;;5060570;28;20056;-77
2021/06/22 07:50:34;;;;;;;7.78;2.15;;;16.90;69.90;;;;;;5114009;28;20023;-80
2021/06/22 07:53:01;;;;;;;8.95;2.65;;;16.90;71.00;;;;;;5095713;28;20047;-80
2021/06/22 07:55:28;;;;;;;8.40;2.83;;;16.80;70.70;;;;;;5114114;28;20030;-80
2021/06/22 07:57:54;;;;;;;10.43;3.00;;;16.80;71.00;;;;;;5095441;28;20031;-80
2021/06/22 08:00:37;;;;;;;7.80;2.72;;;16.90;71.10;;;;;;5113644;28;20035;-80
2021/06/22 08:03:04;;;;;;;10.70;2.70;;;16.90;70.60;;;;;;5103410;28;20024;-80
2021/06/22 08:05:29;;;;;;;12.05;2.60;;;16.80;71.20;;;;;;5058776;28;20035;-80
2021/06/22 08:07:55;;;;;;;6.53;2.67;;;16.90;71.50;;;;;;5093391;28;20103;-80
2021/06/22 08:10:21;;;;;;;7.82;3.03;;;17.00;71.70;;;;;;5093408;28;20044;-80
2021/06/22 08:12:46;;;;;;;8.48;2.72;;;17.00;71.70;;;;;;5075591;28;20547;-80
2021/06/22 08:15:13;;;;;;;10.25;3.45;;;17.10;71.80;;;;;;5093228;28;20020;-80
2021/06/22 08:17:38;;;;;;;7.75;2.60;;;17.10;71.20;;;;;;5092926;28;20083;-80
2021/06/22 08:20:05;;;;;;;10.63;2.90;;;17.10;71.80;;;;;;5093356;28;20055;-80
2021/06/22 08:22:31;;;;;;;7.93;3.15;;;17.10;71.60;;;;;;5093227;28;20074;-80
2021/06/22 08:24:57;;;;;;;7.90;3.00;;;17.00;71.60;;;;;;5076967;28;20427;-79
2021/06/22 08:27:22;;;;;;;7.72;2.95;;;17.00;73.00;;;;;;5109195;28;20061;-79
2021/06/22 08:29:48;;;;;;;6.90;2.75;;;17.00;72.50;;;;;;5099415;28;20077;-80
2021/06/22 08:32:14;;;;;;;7.28;3.17;;;17.00;71.80;;;;;;5095043;28;20074;-80
2021/06/22 08:34:40;;;;;;;7.03;2.63;;;17.00;71.50;;;;;;5096728;28;20473;-84
2021/06/22 08:37:05;;;;;;;10.77;3.00;;;17.00;71.50;;;;;;5075123;28;20052;-82
2021/06/22 08:39:32;;;;;;;8.85;2.80;;;17.00;71.40;;;;;;5075335;28;20577;-83
2021/06/22 08:42:01;;;;;;;6.68;2.75;;;17.00;71.10;;;;;;5075296;28;20065;-82
2021/06/22 08:44:29;;;;;;;7.07;2.80;;;16.90;71.00;;;;;;5084723;28;20028;-83
2021/06/22 08:46:56;;;;;;;11.73;2.90;;;16.90;71.50;;;;;;5075276;28;20044;-82
2021/06/22 08:49:23;;;;;;;8.88;3.50;;;17.00;72.00;;;;;;5076269;28;20035;-82
2021/06/22 08:51:48;;;;;;;10.40;3.50;;;17.00;72.70;;;;;;5058768;28;20035;-83
2021/06/22 08:54:14;;;;;;;8.32;3.78;;;17.00;73.40;;;;;;5083356;28;20020;-82
2021/06/22 08:56:40;;;;;;;8.88;3.30;;;16.90;73.60;;;;;;5095208;28;20059;-82
2021/06/22 08:59:05;;;;;;;13.00;3.90;;;16.90;73.90;;;;;;5073162;28;20032;-82
2021/06/22 09:01:31;;;;;;;8.70;3.80;;;16.90;74.20;;;;;;5095094;28;20028;-82
2021/06/22 09:03:57;;;;;;;9.35;3.92;;;16.90;74.00;;;;;;5089544;28;20055;-74
2021/06/22 09:06:26;;;;;;;11.18;3.95;;;16.90;73.80;;;;;;5075562;28;20646;-74
2021/06/22 09:08:54;;;;;;;12.23;3.65;;;17.00;74.10;;;;;;5081191;28;20039;-73
2021/06/22 09:11:20;;;;;;;11.82;4.20;;;16.90;74.40;;;;;;5094279;28;20031;-73
2021/06/22 09:14:01;;;;;;;15.07;4.22;;;16.90;74.40;;;;;;5069833;28;20488;-72
2021/06/22 09:16:27;;;;;;;12.23;3.53;;;17.00;74.10;;;;;;5095498;28;20039;-72
2021/06/22 09:19:07;;;;;;;7.53;3.10;;;17.00;73.40;;;;;;5091570;28;20070;-72
2021/06/22 09:21:43;;;;;;;10.30;3.05;;;17.00;72.40;;;;;;5094083;28;20051;-73
2021/06/22 09:24:24;;;;;;;8.05;3.00;;;17.10;71.50;;;;;;5085569;28;20031;-72
2021/06/22 09:26:51;;;;;;;8.90;3.35;;;17.10;71.30;;;;;;5075642;28;20074;-72
2021/06/22 09:29:20;;;;;;;6.57;2.97;;;17.10;71.50;;;;;;5074401;28;20512;-72
2021/06/22 09:31:50;;;;;;;8.10;3.03;;;17.10;71.70;;;;;;5078905;28;20146;-72
2021/06/22 09:34:18;;;;;;;7.22;3.17;;;17.00;72.30;;;;;;5074158;28;20040;-72
2021/06/22 09:36:51;;;;;;;8.48;3.10;;;17.00;73.00;;;;;;5081578;28;20092;-73
2021/06/22 09:39:16;;;;;;;9.98;3.08;;;17.10;73.30;;;;;;5097821;28;20028;-73
2021/06/22 09:41:43;;;;;;;10.15;3.58;;;17.20;73.20;;;;;;5089793;28;20480;-72
2021/06/22 09:44:10;;;;;;;11.85;3.83;;;17.30;72.90;;;;;;5088216;28;20020;-72
2021/06/22 09:46:42;;;;;;;9.32;3.53;;;17.30;72.50;;;;;;5087727;28;20027;-72
2021/06/22 09:49:10;;;;;;;8.70;3.63;;;17.30;73.10;;;;;;5102058;28;20503;-72
2021/06/22 09:51:49;;;;;;;11.50;3.78;;;17.30;72.90;;;;;;5099163;28;20031;-72
2021/06/22 09:54:41;;;;;;;;;;;17.20;73.40;;;;;;5092326;28;20137;-73
2021/06/22 09:57:15;;;;;;;9.43;3.40;;;17.20;72.40;;;;;;5111726;28;20355;-73
2021/06/22 10:00:10;;;;;;;13.35;3.78;;;17.10;73.40;;;;;;5101009;28;20081;-73
2021/06/22 10:02:50;;;;;;;14.48;3.78;;;17.20;73.70;;;;;;5094624;28;20044;-72
2021/06/22 10:05:17;;;;;;;8.60;3.33;;;17.20;73.00;;;;;;5104908;28;20479;-74
2021/06/22 10:07:43;;;;;;;8.20;3.60;;;17.30;73.00;;;;;;5112867;28;20035;-73
2021/06/22 10:10:09;;;;;;;12.48;3.90;;;17.30;72.60;;;;;;5078728;28;20024;-72
2021/06/22 10:12:40;;;;;;;15.95;4.35;;;17.40;72.90;;;;;;5092692;28;20487;-73
2021/06/22 10:15:07;;;;;;;11.25;3.88;;;17.50;71.40;;;;;;5105648;28;20111;-72
2021/06/22 10:17:33;;;;;;;11.80;4.00;;;17.60;71.40;;;;;;5112331;28;20138;-73
2021/06/22 10:20:05;;;;;;;15.13;3.90;;;17.60;71.10;;;;;;5095572;28;20027;-72
2021/06/22 10:22:32;;;;;;;12.02;3.88;;;17.70;70.50;;;;;;5102980;28;20588;-73
2021/06/22 10:25:02;;;;;;;8.38;3.85;;;17.80;71.40;;;;;;5112339;28;20031;-72
2021/06/22 10:27:29;;;;;;;7.30;3.53;;;18.20;70.40;;;;;;5076649;28;20074;-72
2021/06/22 10:30:02;;;;;;;8.57;4.18;;;18.40;69.50;;;;;;5084182;28;20032;-72
2021/06/22 10:32:28;;;;;;;11.35;4.40;;;18.50;69.70;;;;;;5097593;28;20028;-72
2021/06/22 10:34:59;;;;;;;17.13;5.03;;;18.40;68.90;;;;;;5094171;28;20533;-72
2021/06/22 10:37:29;;;;;;;6.68;3.80;;;18.30;68.60;;;;;;5093414;28;20047;-72
2021/06/22 10:39:56;;;;;;;10.55;4.20;;;18.20;68.50;;;;;;5095998;28;20073;-72
2021/06/22 10:42:22;;;;;;;10.63;5.10;;;18.10;69.50;;;;;;5113897;28;20019;-72
2021/06/22 10:44:51;;;;;;;11.85;4.75;;;18.00;69.30;;;;;;5099577;28;20024;-73
2021/06/22 10:47:22;;;;;;;10.00;4.43;;;18.00;68.70;;;;;;5100334;28;20027;-72
2021/06/22 10:50:14;;;;;;;9.60;4.05;;;18.00;68.50;;;;;;5105548;28;20023;-74
2021/06/22 10:52:43;;;;;;;8.98;3.90;;;18.10;69.10;;;;;;5095651;28;20613;-74
2021/06/22 10:55:09;;;;;;;;;;;18.30;68.50;;;;;;5114469;28;20102;-74
2021/06/22 10:57:56;;;;;;;9.45;3.97;;;18.30;68.20;;;;;;5113872;28;19999;-74
2021/06/22 11:00:22;;;;;;;7.25;4.10;;;18.40;67.70;;;;;;5113810;28;20028;-74
2021/06/22 11:03:11;;;;;;;8.00;4.75;;;18.50;67.70;;;;;;5113788;28;20377;-74
2021/06/22 11:05:38;;;;;;;11.77;5.05;;;18.70;66.90;;;;;;5096020;28;20039;-74
2021/06/22 11:08:24;;;;;;;10.18;5.35;;;18.70;66.60;;;;;;5108669;28;20106;-74
2021/06/22 11:10:55;;;;;;;11.15;5.90;;;18.90;66.20;;;;;;5080429;28;20035;-73
2021/06/22 11:13:41;;;;;;;9.43;4.70;;;18.90;65.40;;;;;;5093591;28;20031;-73
2021/06/22 11:16:13;;;;;;;11.75;4.55;;;19.00;65.50;;;;;;5113517;28;20428;-73
2021/06/22 11:18:54;;;;;;;11.85;4.47;;;19.00;64.70;;;;;;5113546;28;20020;-73
2021/06/22 11:21:31;;;;;;;9.70;4.35;;;19.00;64.30;;;;;;5089205;28;20031;-73
2021/06/22 11:24:25;;;;;;;9.43;4.95;;;19.10;65.20;;;;;;5093103;28;20026;-73
2021/06/22 11:26:52;;;;;;;8.38;5.55;;;19.20;64.60;;;;;;5093081;28;20035;-73
2021/06/22 11:29:25;;;;;;;11.10;5.82;;;19.10;64.00;;;;;;5095441;28;20028;-73
2021/06/22 11:31:51;;;;;;;17.50;7.50;;;19.10;64.50;;;;;;5113459;28;20024;-73
2021/06/22 11:34:20;;;;;;;13.25;6.93;;;19.00;64.20;;;;;;5113431;28;20034;-73
2021/06/22 11:36:50;;;;;;;13.63;7.35;;;18.80;64.30;;;;;;5094913;28;20050;-73
2021/06/22 11:39:20;;;;;;;11.60;6.85;;;18.70;64.60;;;;;;5079121;28;20046;-73
2021/06/22 11:42:11;;;;;;;11.45;7.10;;;18.60;64.40;;;;;;5102486;28;20061;-73
2021/06/22 11:44:50;;;;;;;13.20;6.93;;;18.60;65.00;;;;;;5113144;28;20016;-73
2021/06/22 11:47:24;;;;;;;;;;;18.60;65.90;;;;;;5113553;28;20443;-72
2021/06/22 11:49:55;;;;;;;10.55;6.28;;;18.60;65.80;;;;;;5113034;28;19904;-73
2021/06/22 11:52:22;;;;;;;12.25;6.15;;;18.50;66.30;;;;;;5113326;28;20024;-72
2021/06/22 11:54:55;;;;;;;9.75;6.40;;;18.40;65.90;;;;;;5094958;28;20027;-73
2021/06/22 11:57:26;;;;;;;11.60;7.13;;;18.40;66.40;;;;;;5074933;28;20186;-72
2021/06/22 11:59:53;;;;;;;13.13;8.57;;;18.40;66.50;;;;;;5095920;28;20492;-73
2021/06/22 12:02:19;;;;;;;14.60;8.38;;;18.40;66.80;;;;;;5062916;28;20040;-73
2021/06/22 12:04:47;;;;;;;13.40;7.20;;;18.50;67.30;;;;;;5096775;28;20065;-73
2021/06/22 12:07:13;;;;;;;11.27;7.15;;;18.50;66.30;;;;;;5079223;28;20522;-72
2021/06/22 12:09:40;;;;;;;20.02;7.20;;;18.60;66.60;;;;;;5062129;28;20480;-73
2021/06/22 12:12:07;;;;;;;10.48;6.75;;;18.50;65.70;;;;;;5096634;28;20054;-73
2021/06/22 12:14:33;;;;;;;13.63;7.53;;;18.50;66.30;;;;;;5096540;28;20032;-74
2021/06/22 12:16:59;;;;;;;15.10;8.70;;;18.50;66.20;;;;;;5101395;28;20462;-73
2021/06/22 12:19:25;;;;;;;13.00;8.85;;;18.50;66.30;;;;;;5096564;28;20426;-73
2021/06/22 12:21:58;;;;;;;13.50;8.50;;;18.50;66.20;;;;;;5096709;28;20103;-73
2021/06/22 12:24:24;;;;;;;14.18;8.43;;;18.60;66.50;;;;;;5096516;28;20085;-73
2021/06/22 12:26:53;;;;;;;13.73;7.43;;;18.70;66.30;;;;;;5078284;28;20025;-73
2021/06/22 12:29:24;;;;;;;9.15;6.18;;;18.80;66.10;;;;;;5096442;28;20061;-73
2021/06/22 12:31:58;;;;;;;11.95;6.72;;;19.00;65.50;;;;;;5091261;28;20601;-79
2021/06/22 12:34:26;;;;;;;16.02;6.78;;;19.00;64.70;;;;;;5117673;28;20032;-78
2021/06/22 12:36:52;;;;;;;12.67;6.27;;;19.00;65.00;;;;;;5117469;28;20387;-78
2021/06/22 12:39:20;;;;;;;15.13;7.97;;;19.00;65.40;;;;;;5117398;28;20117;-78
2021/06/22 12:41:47;;;;;;;12.47;7.37;;;19.10;64.70;;;;;;5099307;28;20023;-79
2021/06/22 12:44:13;;;;;;;10.20;6.95;;;19.00;65.00;;;;;;5117278;28;20016;-79
2021/06/22 12:46:43;;;;;;;12.20;7.32;;;19.00;65.20;;;;;;5098937;28;20073;-78